createdAt,value
2019-04-10T00:01:26.555Z,100806.48
2019-04-10T00:03:59.007Z,100805.64
2019-04-10T00:06:30.268Z,100808.18
2019-04-10T00:09:03.009Z,100805.43
2019-04-10T00:11:34.599Z,100803.16
2019-04-10T00:14:05.853Z,100802.75
2019-04-10T00:16:38.136Z,100804.95
2019-04-10T00:19:10.617Z,100806.07
2019-04-10T00:21:41.968Z,100809.80
2019-04-10T00:24:13.540Z,100808.47
2019-04-10T00:26:45.715Z,100813.56
2019-04-10T00:29:18.192Z,100811.66
2019-04-10T00:31:49.488Z,100816.95
2019-04-10T00:34:21.191Z,100816.33
2019-04-10T00:36:53.340Z,100814.88
2019-04-10T00:39:24.834Z,100819.67
2019-04-10T00:41:56.758Z,100819.39
2019-04-10T00:44:28.088Z,100812.22
2019-04-10T00:46:59.370Z,100811.19
2019-04-10T00:49:31.466Z,100814.95
2019-04-10T00:52:03.795Z,100815.42
2019-04-10T00:54:35.176Z,100822.47
2019-04-10T00:57:07.310Z,100820.22
2019-04-10T00:59:38.713Z,100818.62
2019-04-10T01:02:12.128Z,100823.20
2019-04-10T01:07:13.159Z,100820.81
2019-04-10T01:09:44.412Z,100823.67
2019-04-10T01:12:16.058Z,100820.34
2019-04-10T01:14:47.662Z,100819.45
2019-04-10T01:17:19.054Z,100816.13
2019-04-10T01:19:50.370Z,100824.14
2019-04-10T01:22:21.699Z,100821.62
2019-04-10T01:24:52.864Z,100825.03
2019-04-10T01:27:24.027Z,100821.54
2019-04-10T01:29:55.280Z,100824.05
2019-04-10T01:32:26.519Z,100832.45
2019-04-10T01:34:58.731Z,100824.77
2019-04-10T01:37:30.270Z,100821.56
2019-04-10T01:40:02.525Z,100830.52
2019-04-10T01:42:33.904Z,100829.39
2019-04-10T01:45:05.513Z,100828.89
2019-04-10T01:47:37.201Z,100830.48
2019-04-10T01:50:08.620Z,100825.33
2019-04-10T01:52:39.861Z,100828.95
2019-04-10T01:55:21.144Z,100830.81
2019-04-10T01:57:44.254Z,100833.45
2019-04-10T02:00:19.509Z,100830.28
2019-04-10T02:02:53.808Z,100826.06
2019-04-10T02:05:25.192Z,100837.31
2019-04-10T02:08:03.264Z,100828.83
2019-04-10T02:10:29.540Z,100836.55
2019-04-10T02:13:01.175Z,100836.86
2019-04-10T02:15:32.797Z,100830.00
2019-04-10T02:18:04.093Z,100833.23
2019-04-10T02:20:35.379Z,100832.55
2019-04-10T02:23:06.650Z,100832.22
2019-04-10T02:25:38.985Z,100835.41
2019-04-10T02:28:11.012Z,100837.80
2019-04-10T02:30:43.726Z,100833.86
2019-04-10T02:35:59.109Z,100828.25
2019-04-10T02:38:49.276Z,100833.65
2019-04-10T02:41:03.589Z,100836.91
2019-04-10T02:43:35.911Z,100840.30
2019-04-10T02:46:08.353Z,100837.20
2019-04-10T02:48:41.393Z,100833.71
2019-04-10T02:51:13.690Z,100841.30
2019-04-10T02:53:45.997Z,100847.81
2019-04-10T02:56:18.025Z,100845.19
2019-04-10T02:58:51.355Z,100845.41
2019-04-10T03:01:23.482Z,100839.79
2019-04-10T03:03:55.730Z,100846.74
2019-04-10T03:06:27.303Z,100860.56
2019-04-10T03:09:12.026Z,100858.42
2019-04-10T03:11:32.940Z,100852.69
2019-04-10T03:14:05.141Z,100847.03
2019-04-10T03:16:37.528Z,100853.63
2019-04-10T03:19:09.477Z,100851.98
2019-04-10T03:21:44.976Z,100855.09
2019-04-10T03:24:16.275Z,100859.20
2019-04-10T03:26:47.989Z,100859.20
2019-04-10T03:29:19.899Z,100856.45
2019-04-10T03:31:52.944Z,100856.45
2019-04-10T03:34:30.262Z,100855.02
2019-04-10T03:37:00.007Z,100850.36
2019-04-10T03:39:34.636Z,100863.54
2019-04-10T03:42:04.957Z,100859.38
2019-04-10T03:44:36.210Z,100862.94
2019-04-10T03:47:07.480Z,100864.88
2019-04-10T03:49:38.836Z,100867.86
2019-04-10T03:52:10.149Z,100870.76
2019-04-10T03:54:41.733Z,100871.00
2019-04-10T03:59:42.638Z,100869.08
2019-04-10T04:02:13.912Z,100868.49
2019-04-10T04:04:45.990Z,100875.44
2019-04-10T04:07:17.521Z,100870.15
2019-04-10T04:09:48.893Z,100876.99
2019-04-10T04:12:20.306Z,100873.98
2019-04-10T04:14:51.441Z,100875.17
2019-04-10T04:17:22.727Z,100879.98
2019-04-10T04:19:54.614Z,100880.81
2019-04-10T04:22:25.911Z,100880.92
2019-04-10T04:24:58.076Z,100889.55
2019-04-10T04:27:29.528Z,100892.88
2019-04-10T04:30:00.780Z,100890.23
2019-04-10T04:32:32.027Z,100890.84
2019-04-10T04:35:03.287Z,100888.78
2019-04-10T04:37:34.502Z,100894.66
2019-04-10T04:40:05.916Z,100899.42
2019-04-10T04:42:37.243Z,100892.97
2019-04-10T04:45:08.781Z,100900.86
2019-04-10T04:47:41.194Z,100903.00
2019-04-10T04:50:12.731Z,100905.74
2019-04-10T04:52:43.966Z,100906.95
2019-04-10T04:55:15.183Z,100907.14
2019-04-10T04:57:47.141Z,100913.14
2019-04-10T05:00:18.441Z,100912.89
2019-04-10T05:02:49.692Z,100920.16
2019-04-10T05:05:20.979Z,100930.58
2019-04-10T05:07:59.442Z,100927.12
2019-04-10T05:10:25.252Z,100933.81
2019-04-10T05:12:56.467Z,100934.06
2019-04-10T05:15:28.964Z,100942.09
2019-04-10T05:18:00.331Z,100945.55
2019-04-10T05:20:41.887Z,100948.42
2019-04-10T05:23:04.469Z,100952.37
2019-04-10T05:25:40.079Z,100953.19
2019-04-10T05:28:11.416Z,100949.88
2019-04-10T05:33:17.724Z,100963.15
2019-04-10T05:35:49.064Z,100966.06
2019-04-10T05:38:20.788Z,100962.58
2019-04-10T05:40:52.743Z,100959.02
2019-04-10T05:43:24.102Z,100968.48
2019-04-10T05:45:55.324Z,100977.23
2019-04-10T05:48:26.579Z,100978.70
2019-04-10T05:51:02.281Z,100988.45
2019-04-10T05:53:30.770Z,100996.49
2019-04-10T05:56:02.056Z,100996.23
2019-04-10T05:58:33.396Z,100995.43
2019-04-10T06:01:09.544Z,100996.83
2019-04-10T06:03:40.941Z,101002.59
2019-04-10T06:06:12.517Z,101005.58
2019-04-10T06:08:43.833Z,101007.27
2019-04-10T06:11:15.208Z,101010.27
2019-04-10T06:13:46.448Z,101009.80
2019-04-10T06:16:17.726Z,101014.85
2019-04-10T06:18:48.974Z,101018.68
2019-04-10T06:21:21.078Z,101002.03
2019-04-10T06:23:52.469Z,101017.02
2019-04-10T06:26:23.858Z,101023.52
2019-04-10T06:28:55.067Z,101013.43
2019-04-10T06:31:26.224Z,101014.06
2019-04-10T06:33:58.376Z,101009.58
2019-04-10T06:36:29.718Z,101007.44
2019-04-10T06:39:00.991Z,101011.08
2019-04-10T06:41:32.696Z,101005.80
2019-04-10T06:44:03.982Z,101012.52
2019-04-10T06:46:37.587Z,101009.70
2019-04-10T06:49:09.150Z,101013.44
2019-04-10T06:51:41.063Z,101011.05
2019-04-10T06:54:12.913Z,101011.89
2019-04-10T06:56:45.369Z,101012.74
2019-04-10T07:01:51.196Z,101012.63
2019-04-10T07:04:24.205Z,101014.85
2019-04-10T07:06:58.675Z,101013.25
2019-04-10T07:09:27.109Z,101007.43
2019-04-10T07:12:01.352Z,101016.33
2019-04-10T07:14:33.951Z,101012.39
2019-04-10T07:17:06.995Z,101016.75
2019-04-10T07:19:37.439Z,101013.86
2019-04-10T07:22:12.552Z,101022.81
2019-04-10T07:24:42.610Z,101017.73
2019-04-10T07:27:14.123Z,101011.83
2019-04-10T07:29:45.349Z,101018.64
2019-04-10T07:32:18.406Z,101005.36
2019-04-10T07:34:50.802Z,101018.22
2019-04-10T07:37:24.069Z,101029.16
2019-04-10T07:39:55.242Z,101024.47
2019-04-10T07:42:32.185Z,101026.53
2019-04-10T07:44:59.391Z,101033.17
2019-04-10T07:47:31.421Z,101020.06
2019-04-10T07:50:04.583Z,101037.45
2019-04-10T07:52:35.515Z,101032.00
2019-04-10T07:55:08.626Z,101037.48
2019-04-10T07:57:40.583Z,101040.80
2019-04-10T08:00:15.768Z,101034.32
2019-04-10T08:02:47.408Z,101036.80
2019-04-10T08:05:18.869Z,101038.90
2019-04-10T08:07:52.880Z,101034.64
2019-04-10T08:10:24.172Z,101043.22
2019-04-10T08:12:55.974Z,101034.85
2019-04-10T08:15:27.389Z,101034.95
2019-04-10T08:17:58.665Z,101046.66
2019-04-10T08:20:30.651Z,101039.06
2019-04-10T08:23:01.969Z,101043.27
2019-04-10T08:25:33.322Z,101050.89
2019-04-10T08:30:37.724Z,101048.07
2019-04-10T08:33:09.872Z,101046.47
2019-04-10T08:35:41.917Z,101052.48
2019-04-10T08:38:13.207Z,101057.95
2019-04-10T08:40:44.333Z,101051.64
2019-04-10T08:43:15.844Z,101049.63
2019-04-10T08:45:51.613Z,101051.61
2019-04-10T08:48:20.101Z,101047.37
2019-04-10T08:50:52.451Z,101048.73
2019-04-10T08:53:24.224Z,101049.36
2019-04-10T08:55:56.699Z,101051.22
2019-04-10T08:58:30.735Z,101050.33
2019-04-10T09:01:02.296Z,101049.97
2019-04-10T09:03:33.490Z,101056.17
2019-04-10T09:06:05.021Z,101051.52
2019-04-10T09:08:37.194Z,101060.24
2019-04-10T09:11:09.101Z,101054.20
2019-04-10T09:13:40.966Z,101058.89
2019-04-10T09:16:12.306Z,101056.59
2019-04-10T09:18:43.565Z,101056.70
2019-04-10T09:21:15.336Z,101043.77
2019-04-10T09:23:52.393Z,101060.73
2019-04-10T09:26:20.290Z,101057.53
2019-04-10T09:28:52.849Z,101048.45
2019-04-10T09:31:24.291Z,101059.43
2019-04-10T09:33:55.788Z,101055.56
2019-04-10T09:36:27.142Z,101057.53
2019-04-10T09:38:59.116Z,101049.30
2019-04-10T09:41:30.474Z,101055.42
2019-04-10T09:44:02.490Z,101047.75
2019-04-10T09:46:33.768Z,101044.80
2019-04-10T09:49:05.541Z,101049.38
2019-04-10T09:51:38.221Z,101044.54
2019-04-10T09:54:09.914Z,101041.77
2019-04-10T09:56:41.949Z,101044.94
2019-04-10T09:59:13.850Z,101042.76
2019-04-10T10:01:46.448Z,101043.80
2019-04-10T10:04:17.917Z,101045.75
2019-04-10T10:06:49.382Z,101047.76
2019-04-10T10:09:21.537Z,101043.55
2019-04-10T10:11:53.428Z,101043.00
2019-04-10T10:14:24.843Z,101034.05
2019-04-10T10:16:56.215Z,101042.55
2019-04-10T10:19:30.082Z,101039.72
2019-04-10T10:22:03.569Z,101036.23
2019-04-10T10:24:34.989Z,101039.72
2019-04-10T10:27:07.436Z,101054.01
2019-04-10T10:29:38.765Z,101049.84
2019-04-10T10:32:10.941Z,101045.92
2019-04-10T10:34:42.797Z,101043.87
2019-04-10T10:37:14.572Z,101042.80
2019-04-10T10:39:45.974Z,101041.76
2019-04-10T10:42:17.629Z,101037.76
2019-04-10T10:44:50.001Z,101040.42
2019-04-10T10:47:22.249Z,101034.86
2019-04-10T10:49:54.831Z,101033.58
2019-04-10T10:52:26.172Z,101043.29
2019-04-10T10:54:57.410Z,101042.22
2019-04-10T10:57:28.686Z,101041.52
2019-04-10T10:59:59.975Z,101031.12
2019-04-10T11:02:31.639Z,101053.64
2019-04-10T11:05:06.934Z,101037.04
2019-04-10T11:07:36.100Z,101049.12
2019-04-10T11:10:09.580Z,101036.07
2019-04-10T11:12:40.827Z,101040.09
2019-04-10T11:15:12.568Z,101048.13
2019-04-10T11:17:44.728Z,101032.59
2019-04-10T11:20:17.799Z,101043.29
2019-04-10T11:22:49.631Z,101039.96
2019-04-10T11:25:22.157Z,101033.28
2019-04-10T11:27:53.963Z,101021.62
2019-04-10T11:30:26.844Z,101032.83
2019-04-10T11:32:58.341Z,101047.34
2019-04-10T11:35:31.550Z,101046.45
2019-04-10T11:38:03.455Z,101043.20
2019-04-10T11:40:36.462Z,101045.80
2019-04-10T11:43:09.961Z,101050.80
2019-04-10T11:45:45.961Z,101050.48
2019-04-10T11:48:16.943Z,101060.85
2019-04-10T11:50:53.431Z,101060.64
2019-04-10T11:53:26.085Z,101062.80
2019-04-10T11:56:05.426Z,101062.37
2019-04-10T12:01:12.909Z,101049.75
2019-04-10T12:03:50.572Z,101056.31
2019-04-10T12:06:22.399Z,101051.37
2019-04-10T12:09:13.219Z,101056.30
2019-04-10T12:11:35.067Z,101050.87
2019-04-10T12:14:07.656Z,101062.29
2019-04-10T12:16:39.242Z,101064.66
2019-04-10T12:19:11.042Z,101058.02
2019-04-10T12:21:47.620Z,101054.20
2019-04-10T12:24:19.415Z,101064.05
2019-04-10T12:26:52.559Z,101060.70
2019-04-10T12:29:24.649Z,101058.23
2019-04-10T12:31:56.612Z,101062.06
2019-04-10T12:34:28.526Z,101061.72
2019-04-10T12:37:00.582Z,101061.56
2019-04-10T12:39:32.224Z,101052.39
2019-04-10T12:42:03.804Z,101066.05
2019-04-10T12:44:35.986Z,101066.05
2019-04-10T12:47:08.003Z,101066.05
2019-04-10T12:49:39.427Z,101066.38
2019-04-10T12:52:10.804Z,101069.37
2019-04-10T12:54:43.228Z,101071.97
2019-04-10T12:57:14.868Z,101068.71
2019-04-10T12:59:46.086Z,101057.23
2019-04-10T13:02:18.416Z,101067.23
2019-04-10T13:04:49.929Z,101062.56
2019-04-10T13:07:21.289Z,101059.72
2019-04-10T13:09:52.651Z,101064.89
2019-04-10T13:12:24.824Z,101053.20
2019-04-10T13:14:57.089Z,101066.23
2019-04-10T13:17:28.899Z,101064.90
2019-04-10T13:20:00.273Z,101060.38
2019-04-10T13:22:31.869Z,101051.04
2019-04-10T13:25:03.075Z,101054.70
2019-04-10T13:28:21.354Z,101064.55
2019-04-10T13:31:05.537Z,101061.39
2019-04-10T13:33:53.039Z,101056.72
2019-04-10T13:36:24.503Z,101040.70
2019-04-10T13:38:56.104Z,101050.55
2019-04-10T13:41:34.506Z,101056.38
2019-04-10T13:44:10.715Z,101066.38
2019-04-10T13:46:44.901Z,101059.20
2019-04-10T13:49:20.281Z,101056.02
2019-04-10T13:51:56.053Z,101064.55
2019-04-10T13:54:28.619Z,101063.22
2019-04-10T13:57:10.499Z,101071.22
2019-04-10T13:59:43.360Z,101061.72
2019-04-10T14:02:25.667Z,101073.70
2019-04-10T14:04:59.764Z,101067.06
2019-04-10T14:07:33.825Z,101064.69
2019-04-10T14:10:10.510Z,101069.17
2019-04-10T14:12:44.011Z,101052.66
2019-04-10T14:15:18.273Z,101085.37
2019-04-10T14:17:57.504Z,101079.08
2019-04-10T14:20:35.413Z,101077.75
2019-04-10T14:23:13.228Z,101080.58
2019-04-10T14:26:06.531Z,101075.40
2019-04-10T14:28:37.944Z,101079.24
2019-04-10T14:31:16.815Z,101088.40
2019-04-10T14:33:48.915Z,101090.42
2019-04-10T14:36:21.007Z,101086.91
2019-04-10T14:38:53.672Z,101079.73
2019-04-10T14:41:26.094Z,101091.11
2019-04-10T14:43:57.807Z,101098.42
2019-04-10T14:46:29.399Z,101093.59
2019-04-10T14:49:00.749Z,101096.95
2019-04-10T14:51:32.570Z,101098.45
2019-04-10T14:54:04.270Z,101094.11
2019-04-10T14:56:35.666Z,101106.61
2019-04-10T14:59:07.339Z,101102.77
2019-04-10T15:01:38.853Z,101089.58
2019-04-10T15:04:10.935Z,101103.80
2019-04-10T15:06:42.389Z,101102.11
2019-04-10T15:09:25.885Z,101091.09
2019-04-10T15:11:55.728Z,101101.59
2019-04-10T15:14:27.835Z,101093.32
2019-04-10T15:17:04.183Z,101105.95
2019-04-10T15:19:32.347Z,101104.63
2019-04-10T15:22:03.790Z,101104.70
2019-04-10T15:24:35.475Z,101118.87
2019-04-10T15:27:06.890Z,101111.39
2019-04-10T15:29:38.584Z,101115.36
2019-04-10T15:32:10.607Z,101125.83
2019-04-10T15:34:41.970Z,101122.63
2019-04-10T15:37:13.285Z,101125.75
2019-04-10T15:39:44.844Z,101120.55
2019-04-10T15:42:16.263Z,101122.80
2019-04-10T15:44:48.203Z,101121.57
2019-04-10T15:47:22.497Z,101122.45
2019-04-10T15:49:53.335Z,101124.57
2019-04-10T15:52:25.048Z,101124.05
2019-04-10T15:54:57.312Z,101126.13
2019-04-10T15:57:29.057Z,101124.65
2019-04-10T16:00:00.878Z,101124.41
2019-04-10T16:02:33.049Z,101118.73
2019-04-10T16:05:04.831Z,101126.88
2019-04-10T16:07:36.333Z,101126.58
2019-04-10T16:10:31.462Z,101136.62
2019-04-10T16:13:06.018Z,101138.82
2019-04-10T16:15:40.809Z,101143.50
2019-04-10T16:18:15.608Z,101143.14
2019-04-10T16:20:47.478Z,101140.64
2019-04-10T16:23:36.410Z,101136.06
2019-04-10T16:26:09.229Z,101143.64
2019-04-10T16:28:40.559Z,101153.27
2019-04-10T16:31:13.084Z,101141.91
2019-04-10T16:33:44.560Z,101148.17
2019-04-10T16:36:15.874Z,101149.03
2019-04-10T16:38:47.175Z,101145.83
2019-04-10T16:41:19.434Z,101151.64
2019-04-10T16:43:50.791Z,101160.54
2019-04-10T16:46:22.063Z,101150.18
2019-04-10T16:48:53.415Z,101159.84
2019-04-10T16:51:24.680Z,101153.52
2019-04-10T16:53:55.990Z,101166.53
2019-04-10T16:56:27.214Z,101164.52
2019-04-10T16:58:58.673Z,101168.55
2019-04-10T17:01:46.795Z,101171.09
2019-04-10T17:04:18.914Z,101170.47
2019-04-10T17:06:50.558Z,101170.36
2019-04-10T17:09:29.263Z,101173.59
2019-04-10T17:12:35.912Z,101171.14
2019-04-10T17:15:10.302Z,101179.81
2019-04-10T17:17:42.316Z,101181.91
2019-04-10T17:20:20.618Z,101180.16
2019-04-10T17:22:54.615Z,101186.77
2019-04-10T17:25:38.630Z,101185.80
2019-04-10T17:28:16.476Z,101192.32
2019-04-10T17:30:49.861Z,101194.34
2019-04-10T17:33:25.064Z,101184.98
2019-04-10T17:36:00.071Z,101201.78
2019-04-10T17:38:36.496Z,101201.44
2019-04-10T17:41:15.493Z,101207.13
2019-04-10T17:44:00.657Z,101212.94
2019-04-10T17:46:41.532Z,101207.38
2019-04-10T17:49:51.781Z,101217.70
2019-04-10T17:52:08.254Z,101219.74
2019-04-10T17:54:45.042Z,101224.06
2019-04-10T17:57:18.819Z,101230.03
2019-04-10T18:00:08.974Z,101227.77
2019-04-10T18:02:41.069Z,101239.66
2019-04-10T18:05:12.718Z,101242.15
2019-04-10T18:07:44.014Z,101241.83
2019-04-10T18:10:16.127Z,101239.22
2019-04-10T18:12:49.170Z,101246.73
2019-04-10T18:15:21.918Z,101248.30
2019-04-10T18:17:53.490Z,101253.21
2019-04-10T18:20:24.702Z,101254.13
2019-04-10T18:22:56.059Z,101255.97
2019-04-10T18:25:27.718Z,101267.34
2019-04-10T18:27:59.103Z,101265.61
2019-04-10T18:30:32.833Z,101269.25
2019-04-10T18:33:05.004Z,101279.04
2019-04-10T18:35:36.543Z,101281.51
2019-04-10T18:38:08.954Z,101280.80
2019-04-10T18:40:51.500Z,101289.88
2019-04-10T18:43:13.357Z,101288.61
2019-04-10T18:45:54.762Z,101294.91
2019-04-10T18:48:18.610Z,101294.05
2019-04-10T18:50:50.127Z,101299.86
2019-04-10T18:53:21.385Z,101303.29
2019-04-10T18:55:56.615Z,101306.77
2019-04-10T18:58:34.071Z,101301.59
2019-04-10T19:01:23.104Z,101317.25
2019-04-10T19:04:10.243Z,101315.97
2019-04-10T19:06:53.609Z,101314.78
2019-04-10T19:09:28.179Z,101316.02
2019-04-10T19:12:00.265Z,101319.69
2019-04-10T19:14:58.359Z,101323.06
2019-04-10T19:17:30.912Z,101330.45
2019-04-10T19:20:04.072Z,101324.25
2019-04-10T19:22:42.487Z,101326.75
2019-04-10T19:25:14.568Z,101333.19
2019-04-10T19:27:49.000Z,101331.77
2019-04-10T19:30:35.355Z,101324.09
2019-04-10T19:33:07.980Z,101326.31
2019-04-10T19:35:39.734Z,101335.24
2019-04-10T19:38:13.533Z,101330.98
2019-04-10T19:40:52.040Z,101338.72
2019-04-10T19:43:24.185Z,101342.81
2019-04-10T19:45:56.488Z,101352.19
2019-04-10T19:48:28.108Z,101352.29
2019-04-10T19:50:59.762Z,101350.86
2019-04-10T19:53:31.192Z,101350.75
2019-04-10T19:56:04.808Z,101354.41
2019-04-10T19:58:36.511Z,101353.91
2019-04-10T20:01:08.788Z,101359.98
2019-04-10T20:03:44.240Z,101362.67
2019-04-10T20:06:20.994Z,101357.73
2019-04-10T20:08:59.973Z,101370.52
2019-04-10T20:11:38.647Z,101378.09
2019-04-10T20:14:08.287Z,101373.59
2019-04-10T20:16:39.796Z,101374.02
2019-04-10T20:19:11.131Z,101387.55
2019-04-10T20:21:42.431Z,101379.36
2019-04-10T20:24:13.731Z,101379.27
2019-04-10T20:26:45.413Z,101382.31
2019-04-10T20:29:17.180Z,101382.72
2019-04-10T20:31:49.939Z,101384.67
2019-04-10T20:34:21.310Z,101389.50
2019-04-10T20:36:53.309Z,101394.64
2019-04-10T20:39:25.359Z,101393.77
2019-04-10T20:41:59.340Z,101393.78
2019-04-10T20:44:32.602Z,101392.61
2019-04-10T20:47:05.207Z,101402.16
2019-04-10T20:49:36.583Z,101400.37
2019-04-10T20:52:12.823Z,101399.05
2019-04-10T20:54:46.871Z,101400.48
2019-04-10T20:57:19.199Z,101403.48
2019-04-10T21:00:05.126Z,101410.92
2019-04-10T21:02:46.718Z,101411.19
2019-04-10T21:05:18.113Z,101415.75
2019-04-10T21:07:50.197Z,101417.42
2019-04-10T21:10:23.547Z,101424.27
2019-04-10T21:12:55.012Z,101421.39
2019-04-10T21:15:26.433Z,101420.95
2019-04-10T21:17:59.065Z,101424.33
2019-04-10T21:20:30.821Z,101420.13
2019-04-10T21:23:02.090Z,101432.63
2019-04-10T21:25:35.015Z,101419.91
2019-04-10T21:30:56.972Z,101429.02
2019-04-10T21:33:33.556Z,101434.69
2019-04-10T21:36:04.989Z,101430.83
2019-04-10T21:38:36.594Z,101425.42
2019-04-10T21:41:10.225Z,101439.84
2019-04-10T21:43:41.014Z,101441.91
2019-04-10T21:46:12.363Z,101448.27
2019-04-10T21:48:43.598Z,101446.48
2019-04-10T21:51:14.918Z,101453.08
2019-04-10T21:53:47.242Z,101451.98
2019-04-10T21:56:18.657Z,101451.63
2019-04-10T21:58:49.867Z,101451.64
2019-04-10T22:01:21.951Z,101450.69
2019-04-10T22:03:54.215Z,101455.14
2019-04-10T22:06:43.298Z,101459.20
2019-04-10T22:09:32.098Z,101448.98
2019-04-10T22:12:21.582Z,101456.08
2019-04-10T22:14:42.102Z,101450.29
2019-04-10T22:17:13.610Z,101455.70
2019-04-10T22:19:45.255Z,101458.29
2019-04-10T22:22:16.416Z,101459.26
2019-04-10T22:24:48.606Z,101451.91
2019-04-10T22:27:20.148Z,101453.73
2019-04-10T22:29:52.171Z,101454.92
2019-04-10T22:32:24.535Z,101461.28
2019-04-10T22:34:56.916Z,101458.61
2019-04-10T22:37:28.235Z,101453.30
2019-04-10T22:39:59.490Z,101456.87
2019-04-10T22:42:40.045Z,101452.42
2019-04-10T22:45:04.485Z,101460.59
2019-04-10T22:47:35.954Z,101455.42
2019-04-10T22:50:08.528Z,101447.60
2019-04-10T22:52:40.138Z,101451.92
2019-04-10T22:55:11.615Z,101458.28
2019-04-10T22:57:42.883Z,101457.31
2019-04-10T23:00:20.141Z,101458.84
2019-04-10T23:02:51.491Z,101463.38
2019-04-10T23:05:22.751Z,101465.77
2019-04-10T23:07:54.048Z,101464.75
2019-04-10T23:10:25.382Z,101468.11
2019-04-10T23:13:01.455Z,101468.11
2019-04-10T23:15:29.724Z,101467.00
2019-04-10T23:18:01.341Z,101472.48
2019-04-10T23:20:32.537Z,101468.02
2019-04-10T23:23:03.813Z,101478.32
2019-04-10T23:25:36.321Z,101476.69
2019-04-10T23:28:07.795Z,101482.17
2019-04-10T23:30:39.256Z,101480.05
2019-04-10T23:33:10.509Z,101481.10
2019-04-10T23:35:41.784Z,101477.54
2019-04-10T23:38:13.243Z,101484.69
2019-04-10T23:40:45.250Z,101488.23
2019-04-10T23:43:18.082Z,101487.48
2019-04-10T23:45:50.138Z,101483.86
2019-04-10T23:48:22.461Z,101478.58
2019-04-10T23:50:54.481Z,101486.86
2019-04-10T23:53:26.699Z,101499.70
2019-04-10T23:55:58.710Z,101487.63
2019-04-10T23:58:29.936Z,101499.48
